Airfield :
LOGIN :

Register | Disclaimer

   EN    FR    IT 

 










Legend :    VFR   Marginal VFR   IFR   Intensive IFR   Very Intensive IFR
Visi :
Ceiling :
>= 8 km
>= 3000ft
5 to 8 km
1000 to 3000 ft
1500m to 5 km
500 to 1000 ft
800 to 1500m
200 to 500 ft
< 800m
< 200 ft
Symbols :   Thunderstorms  Fog  Heavy snow  Heavy precipitations  Wind > 20 kt
SIGMETs :     Misc.  Thunderstorms  Icing  Turbulence  Mountain Waves  Volcanic Ashes







- Airport Elevation : 598 ft
- IATA code : BQH
- Download approach charts


EGKB - Biggin Hill

CURRENT METAR :
  • 261250Z 07014KT 040V100 9999 FEW040 12/05 Q1023

EXPIRED METARs :
  • 261220Z 07016KT 9999 FEW028 13/06 Q1023
  • 261150Z 07014KT 040V100 9999 FEW025 12/06 Q1024
  • 261120Z 07014KT 040V100 9999 FEW025 12/06 Q1024
  • 261050Z 06014KT 040V100 9999 FEW015 11/06 Q1024
  • 261020Z 06015KT 040V100 9999 FEW015 10/06 Q1024
  • 260950Z 06013KT 9999 FEW015 10/06 Q1024

TAF TAF EGKB
Valid from the 26 at 12:00 until the 26 at 19:00 UTC


261105Z 2612/2619 06012KT 9999 FEW018
No reported NOTAMs for that airfield.



MET'MAP, your aeronautical weather chart ! - Copyright ORBIFLY December 2007 - Disclaimer

ORBIFLY MET'MAP TEAM :

Programming & Development : Alexandra Zaïnal
Concept & Development : Baudouin d'Aumeries
Co-Development & Prog : Marc-Olivier Méhu
Technical & hardware support : Manuel Goepfert

Contact : metmap@orbifly.com




SOURCES & CREDITS :

   NOAA